sensor_id;sensor_type;location;lat;lon;timestamp;P1;durP1;ratioP1;P2;durP2;ratioP2
21827;SDS011;11076;47.942;11.804;2023-01-25T00:00:27;42.43;;;13.60;;
21827;SDS011;11076;47.942;11.804;2023-01-25T00:05:29;40.23;;;13.43;;
21827;SDS011;11076;47.942;11.804;2023-01-25T00:10:32;40.53;;;14.97;;
21827;SDS011;11076;47.942;11.804;2023-01-25T00:15:34;23.13;;;10.23;;
21827;SDS011;11076;47.942;11.804;2023-01-25T00:20:36;31.03;;;11.80;;
21827;SDS011;11076;47.942;11.804;2023-01-25T00:25:39;33.57;;;13.63;;
21827;SDS011;11076;47.942;11.804;2023-01-25T00:30:41;38.53;;;13.33;;
21827;SDS011;11076;47.942;11.804;2023-01-25T00:35:44;53.77;;;15.60;;
21827;SDS011;11076;47.942;11.804;2023-01-25T00:40:49;31.77;;;10.03;;
21827;SDS011;11076;47.942;11.804;2023-01-25T00:45:51;23.43;;;9.57;;
21827;SDS011;11076;47.942;11.804;2023-01-25T00:50:54;34.80;;;11.73;;
21827;SDS011;11076;47.942;11.804;2023-01-25T00:56:01;31.53;;;11.77;;
21827;SDS011;11076;47.942;11.804;2023-01-25T01:01:04;41.77;;;12.80;;
21827;SDS011;11076;47.942;11.804;2023-01-25T01:06:10;28.93;;;10.53;;
21827;SDS011;11076;47.942;11.804;2023-01-25T01:11:13;35.30;;;12.53;;
21827;SDS011;11076;47.942;11.804;2023-01-25T01:16:15;40.00;;;15.17;;
21827;SDS011;11076;47.942;11.804;2023-01-25T01:21:18;28.33;;;10.23;;
21827;SDS011;11076;47.942;11.804;2023-01-25T01:26:20;42.67;;;11.70;;
21827;SDS011;11076;47.942;11.804;2023-01-25T01:31:23;45.97;;;15.63;;
21827;SDS011;11076;47.942;11.804;2023-01-25T01:36:38;50.20;;;16.93;;
21827;SDS011;11076;47.942;11.804;2023-01-25T01:41:41;27.27;;;10.13;;
21827;SDS011;11076;47.942;11.804;2023-01-25T01:46:54;40.20;;;14.00;;
21827;SDS011;11076;47.942;11.804;2023-01-25T01:52:07;36.27;;;12.97;;
21827;SDS011;11076;47.942;11.804;2023-01-25T02:02:19;38.93;;;13.83;;
21827;SDS011;11076;47.942;11.804;2023-01-25T02:07:24;52.00;;;16.63;;
21827;SDS011;11076;47.942;11.804;2023-01-25T02:12:35;39.30;;;13.77;;
21827;SDS011;11076;47.942;11.804;2023-01-25T02:17:41;40.20;;;14.20;;
21827;SDS011;11076;47.942;11.804;2023-01-25T02:27:55;40.77;;;16.13;;
21827;SDS011;11076;47.942;11.804;2023-01-25T02:33:03;39.00;;;13.50;;
21827;SDS011;11076;47.942;11.804;2023-01-25T02:38:06;38.10;;;13.37;;
21827;SDS011;11076;47.942;11.804;2023-01-25T02:43:09;35.80;;;11.77;;
21827;SDS011;11076;47.942;11.804;2023-01-25T02:48:11;39.30;;;12.53;;
21827;SDS011;11076;47.942;11.804;2023-01-25T02:53:15;62.83;;;14.03;;
21827;SDS011;11076;47.942;11.804;2023-01-25T02:58:17;29.37;;;11.10;;
21827;SDS011;11076;47.942;11.804;2023-01-25T03:03:20;34.10;;;12.87;;
21827;SDS011;11076;47.942;11.804;2023-01-25T03:08:22;26.83;;;9.83;;
21827;SDS011;11076;47.942;11.804;2023-01-25T03:13:27;44.60;;;17.37;;
21827;SDS011;11076;47.942;11.804;2023-01-25T03:18:30;47.77;;;19.07;;
21827;SDS011;11076;47.942;11.804;2023-01-25T03:23:33;37.43;;;15.50;;
21827;SDS011;11076;47.942;11.804;2023-01-25T03:28:37;32.03;;;13.03;;
21827;SDS011;11076;47.942;11.804;2023-01-25T03:33:41;66.17;;;21.07;;
21827;SDS011;11076;47.942;11.804;2023-01-25T03:38:44;47.70;;;18.20;;
21827;SDS011;11076;47.942;11.804;2023-01-25T03:43:47;115.43;;;33.35;;
21827;SDS011;11076;47.942;11.804;2023-01-25T03:48:51;50.23;;;19.50;;
21827;SDS011;11076;47.942;11.804;2023-01-25T03:53:54;67.40;;;20.37;;
21827;SDS011;11076;47.942;11.804;2023-01-25T03:58:57;52.77;;;20.10;;
21827;SDS011;11076;47.942;11.804;2023-01-25T04:04:00;53.00;;;20.20;;
21827;SDS011;11076;47.942;11.804;2023-01-25T04:09:03;64.73;;;18.30;;
21827;SDS011;11076;47.942;11.804;2023-01-25T04:14:12;45.87;;;14.80;;
21827;SDS011;11076;47.942;11.804;2023-01-25T04:19:21;60.07;;;18.37;;
21827;SDS011;11076;47.942;11.804;2023-01-25T04:24:24;60.73;;;15.80;;
21827;SDS011;11076;47.942;11.804;2023-01-25T04:29:26;87.00;;;17.33;;
21827;SDS011;11076;47.942;11.804;2023-01-25T04:34:41;41.37;;;13.53;;
21827;SDS011;11076;47.942;11.804;2023-01-25T04:39:48;51.50;;;16.90;;
21827;SDS011;11076;47.942;11.804;2023-01-25T04:44:50;25.13;;;10.70;;
21827;SDS011;11076;47.942;11.804;2023-01-25T04:49:53;29.63;;;11.17;;
21827;SDS011;11076;47.942;11.804;2023-01-25T04:54:58;20.47;;;10.20;;
21827;SDS011;11076;47.942;11.804;2023-01-25T05:00:03;30.77;;;9.83;;
21827;SDS011;11076;47.942;11.804;2023-01-25T05:05:07;39.90;;;15.00;;
21827;SDS011;11076;47.942;11.804;2023-01-25T05:10:11;113.00;;;45.67;;
21827;SDS011;11076;47.942;11.804;2023-01-25T05:15:24;57.93;;;21.60;;
21827;SDS011;11076;47.942;11.804;2023-01-25T05:20:27;47.60;;;21.03;;
21827;SDS011;11076;47.942;11.804;2023-01-25T05:25:30;47.67;;;18.00;;
21827;SDS011;11076;47.942;11.804;2023-01-25T05:30:57;76.07;;;33.30;;
21827;SDS011;11076;47.942;11.804;2023-01-25T05:36:01;72.67;;;29.93;;
21827;SDS011;11076;47.942;11.804;2023-01-25T05:41:07;53.83;;;19.20;;
21827;SDS011;11076;47.942;11.804;2023-01-25T05:46:10;42.50;;;18.83;;
21827;SDS011;11076;47.942;11.804;2023-01-25T05:51:12;39.17;;;16.07;;
21827;SDS011;11076;47.942;11.804;2023-01-25T05:56:15;39.93;;;15.37;;
21827;SDS011;11076;47.942;11.804;2023-01-25T06:01:18;45.23;;;17.27;;
21827;SDS011;11076;47.942;11.804;2023-01-25T06:06:26;29.73;;;13.20;;
21827;SDS011;11076;47.942;11.804;2023-01-25T06:11:28;69.30;;;25.33;;
21827;SDS011;11076;47.942;11.804;2023-01-25T06:16:31;58.77;;;21.17;;
21827;SDS011;11076;47.942;11.804;2023-01-25T06:21:52;62.40;;;23.10;;
21827;SDS011;11076;47.942;11.804;2023-01-25T06:26:55;45.07;;;17.30;;
21827;SDS011;11076;47.942;11.804;2023-01-25T06:31:57;52.03;;;19.67;;
21827;SDS011;11076;47.942;11.804;2023-01-25T06:36:59;34.20;;;13.50;;
21827;SDS011;11076;47.942;11.804;2023-01-25T06:42:02;48.37;;;17.67;;
21827;SDS011;11076;47.942;11.804;2023-01-25T06:47:07;45.07;;;17.70;;
21827;SDS011;11076;47.942;11.804;2023-01-25T06:52:09;80.70;;;32.57;;
21827;SDS011;11076;47.942;11.804;2023-01-25T06:57:12;64.53;;;27.43;;
21827;SDS011;11076;47.942;11.804;2023-01-25T07:02:14;67.93;;;25.07;;
21827;SDS011;11076;47.942;11.804;2023-01-25T07:07:17;67.47;;;28.87;;
21827;SDS011;11076;47.942;11.804;2023-01-25T07:12:19;41.80;;;18.20;;
21827;SDS011;11076;47.942;11.804;2023-01-25T07:17:23;74.77;;;24.23;;
21827;SDS011;11076;47.942;11.804;2023-01-25T07:22:25;29.97;;;13.00;;
21827;SDS011;11076;47.942;11.804;2023-01-25T07:27:27;29.67;;;13.07;;
21827;SDS011;11076;47.942;11.804;2023-01-25T07:32:34;29.47;;;13.70;;
21827;SDS011;11076;47.942;11.804;2023-01-25T07:37:37;31.07;;;14.60;;
21827;SDS011;11076;47.942;11.804;2023-01-25T07:42:39;35.77;;;14.30;;
21827;SDS011;11076;47.942;11.804;2023-01-25T07:47:46;37.17;;;14.93;;
21827;SDS011;11076;47.942;11.804;2023-01-25T07:52:48;47.63;;;18.00;;
21827;SDS011;11076;47.942;11.804;2023-01-25T07:57:54;31.33;;;12.33;;
21827;SDS011;11076;47.942;11.804;2023-01-25T08:02:56;40.10;;;14.93;;
21827;SDS011;11076;47.942;11.804;2023-01-25T08:07:59;50.10;;;18.77;;
21827;SDS011;11076;47.942;11.804;2023-01-25T08:29:55;51.63;;;19.13;;
21827;SDS011;11076;47.942;11.804;2023-01-25T08:34:58;30.90;;;13.33;;
21827;SDS011;11076;47.942;11.804;2023-01-25T08:40:00;43.97;;;17.73;;
21827;SDS011;11076;47.942;11.804;2023-01-25T08:45:03;48.20;;;20.03;;
21827;SDS011;11076;47.942;11.804;2023-01-25T08:50:05;36.33;;;15.47;;
21827;SDS011;11076;47.942;11.804;2023-01-25T08:55:09;46.60;;;18.60;;
21827;SDS011;11076;47.942;11.804;2023-01-25T09:00:11;52.83;;;20.30;;
21827;SDS011;11076;47.942;11.804;2023-01-25T09:05:14;42.10;;;19.27;;
21827;SDS011;11076;47.942;11.804;2023-01-25T09:10:16;48.73;;;20.63;;
21827;SDS011;11076;47.942;11.804;2023-01-25T09:15:19;46.00;;;18.63;;
21827;SDS011;11076;47.942;11.804;2023-01-25T09:20:23;47.60;;;17.97;;
21827;SDS011;11076;47.942;11.804;2023-01-25T09:25:26;31.13;;;13.70;;
21827;SDS011;11076;47.942;11.804;2023-01-25T09:30:28;42.90;;;17.47;;
21827;SDS011;11076;47.942;11.804;2023-01-25T09:35:51;42.30;;;18.10;;
21827;SDS011;11076;47.942;11.804;2023-01-25T09:46:13;42.87;;;19.63;;
21827;SDS011;11076;47.942;11.804;2023-01-25T09:51:29;42.87;;;18.73;;
21827;SDS011;11076;47.942;11.804;2023-01-25T09:56:46;40.23;;;16.60;;
21827;SDS011;11076;47.942;11.804;2023-01-25T10:12:49;38.00;;;18.47;;
21827;SDS011;11076;47.942;11.804;2023-01-25T10:17:54;36.87;;;19.13;;
21827;SDS011;11076;47.942;11.804;2023-01-25T10:33:38;207.67;;;60.83;;
21827;SDS011;11076;47.942;11.804;2023-01-25T10:38:45;333.47;;;90.40;;
21827;SDS011;11076;47.942;11.804;2023-01-25T10:43:50;339.93;;;95.50;;
21827;SDS011;11076;47.942;11.804;2023-01-25T10:49:35;161.30;;;47.70;;
21827;SDS011;11076;47.942;11.804;2023-01-25T10:54:43;62.07;;;20.80;;
21827;SDS011;11076;47.942;11.804;2023-01-25T10:59:48;26.97;;;13.80;;
21827;SDS011;11076;47.942;11.804;2023-01-25T11:04:53;39.20;;;14.13;;
21827;SDS011;11076;47.942;11.804;2023-01-25T11:09:55;66.50;;;13.77;;
21827;SDS011;11076;47.942;11.804;2023-01-25T11:14:57;48.37;;;12.87;;
21827;SDS011;11076;47.942;11.804;2023-01-25T11:20:28;51.17;;;13.03;;
21827;SDS011;11076;47.942;11.804;2023-01-25T11:25:32;19.23;;;8.80;;
21827;SDS011;11076;47.942;11.804;2023-01-25T11:30:35;24.10;;;10.23;;
21827;SDS011;11076;47.942;11.804;2023-01-25T11:35:41;17.00;;;7.97;;
21827;SDS011;11076;47.942;11.804;2023-01-25T11:41:20;20.93;;;8.83;;
21827;SDS011;11076;47.942;11.804;2023-01-25T12:08:16;64.80;;;13.30;;
21827;SDS011;11076;47.942;11.804;2023-01-25T12:13:51;75.57;;;13.43;;
21827;SDS011;11076;47.942;11.804;2023-01-25T12:19:02;89.57;;;11.97;;
21827;SDS011;11076;47.942;11.804;2023-01-25T12:30:01;81.03;;;10.87;;
21827;SDS011;11076;47.942;11.804;2023-01-25T12:35:20;51.97;;;9.27;;
21827;SDS011;11076;47.942;11.804;2023-01-25T12:45:47;97.70;;;12.63;;
21827;SDS011;11076;47.942;11.804;2023-01-25T12:50:56;29.07;;;9.63;;
21827;SDS011;11076;47.942;11.804;2023-01-25T12:55:59;51.03;;;10.77;;
21827;SDS011;11076;47.942;11.804;2023-01-25T13:06:17;23.80;;;8.57;;
21827;SDS011;11076;47.942;11.804;2023-01-25T13:11:41;120.47;;;10.03;;
21827;SDS011;11076;47.942;11.804;2023-01-25T13:16:52;31.50;;;9.07;;
21827;SDS011;11076;47.942;11.804;2023-01-25T13:22:10;61.83;;;16.40;;
21827;SDS011;11076;47.942;11.804;2023-01-25T13:27:24;358.63;;;87.13;;
21827;SDS011;11076;47.942;11.804;2023-01-25T13:37:40;20.73;;;8.90;;
21827;SDS011;11076;47.942;11.804;2023-01-25T13:42:43;15.43;;;8.37;;
21827;SDS011;11076;47.942;11.804;2023-01-25T13:48:10;13.37;;;6.77;;
21827;SDS011;11076;47.942;11.804;2023-01-25T14:03:46;16.77;;;8.50;;
21827;SDS011;11076;47.942;11.804;2023-01-25T14:08:53;40.77;;;10.20;;
21827;SDS011;11076;47.942;11.804;2023-01-25T14:19:26;24.07;;;8.27;;
21827;SDS011;11076;47.942;11.804;2023-01-25T14:24:30;21.80;;;9.07;;
21827;SDS011;11076;47.942;11.804;2023-01-25T14:29:33;21.90;;;9.60;;
21827;SDS011;11076;47.942;11.804;2023-01-25T14:34:36;15.10;;;8.13;;
21827;SDS011;11076;47.942;11.804;2023-01-25T14:39:38;26.93;;;10.03;;
21827;SDS011;11076;47.942;11.804;2023-01-25T14:44:41;33.93;;;10.43;;
21827;SDS011;11076;47.942;11.804;2023-01-25T14:49:44;24.10;;;9.57;;
21827;SDS011;11076;47.942;11.804;2023-01-25T15:00:00;15.57;;;8.40;;
21827;SDS011;11076;47.942;11.804;2023-01-25T15:10:29;24.07;;;10.73;;
21827;SDS011;11076;47.942;11.804;2023-01-25T15:15:33;18.37;;;8.90;;
21827;SDS011;11076;47.942;11.804;2023-01-25T15:20:37;21.67;;;9.20;;
21827;SDS011;11076;47.942;11.804;2023-01-25T15:25:49;20.03;;;8.33;;
21827;SDS011;11076;47.942;11.804;2023-01-25T15:30:52;19.00;;;7.67;;
21827;SDS011;11076;47.942;11.804;2023-01-25T15:35:55;23.60;;;9.33;;
21827;SDS011;11076;47.942;11.804;2023-01-25T15:40:58;14.83;;;7.53;;
21827;SDS011;11076;47.942;11.804;2023-01-25T15:46:02;18.93;;;9.40;;
21827;SDS011;11076;47.942;11.804;2023-01-25T15:51:06;16.70;;;8.37;;
21827;SDS011;11076;47.942;11.804;2023-01-25T15:56:11;24.30;;;9.40;;
21827;SDS011;11076;47.942;11.804;2023-01-25T16:01:14;19.83;;;9.33;;
21827;SDS011;11076;47.942;11.804;2023-01-25T16:11:37;14.80;;;7.60;;
21827;SDS011;11076;47.942;11.804;2023-01-25T16:16:41;15.77;;;8.23;;
21827;SDS011;11076;47.942;11.804;2023-01-25T16:21:46;17.93;;;7.97;;
21827;SDS011;11076;47.942;11.804;2023-01-25T16:26:52;17.97;;;8.27;;
21827;SDS011;11076;47.942;11.804;2023-01-25T16:31:55;11.90;;;6.77;;
21827;SDS011;11076;47.942;11.804;2023-01-25T16:36:58;15.80;;;7.53;;
21827;SDS011;11076;47.942;11.804;2023-01-25T16:42:01;20.40;;;8.77;;
21827;SDS011;11076;47.942;11.804;2023-01-25T16:47:03;23.40;;;9.23;;
21827;SDS011;11076;47.942;11.804;2023-01-25T16:52:06;20.30;;;8.83;;
21827;SDS011;11076;47.942;11.804;2023-01-25T16:57:08;19.07;;;8.23;;
21827;SDS011;11076;47.942;11.804;2023-01-25T17:02:21;18.87;;;8.27;;
21827;SDS011;11076;47.942;11.804;2023-01-25T17:07:23;22.10;;;8.03;;
21827;SDS011;11076;47.942;11.804;2023-01-25T17:12:26;20.97;;;9.70;;
21827;SDS011;11076;47.942;11.804;2023-01-25T17:17:28;16.30;;;8.10;;
21827;SDS011;11076;47.942;11.804;2023-01-25T17:22:32;25.53;;;9.97;;
21827;SDS011;11076;47.942;11.804;2023-01-25T17:27:38;22.87;;;9.30;;
21827;SDS011;11076;47.942;11.804;2023-01-25T17:32:40;29.73;;;10.67;;
21827;SDS011;11076;47.942;11.804;2023-01-25T17:37:43;26.03;;;9.80;;
21827;SDS011;11076;47.942;11.804;2023-01-25T17:42:45;50.20;;;10.63;;
21827;SDS011;11076;47.942;11.804;2023-01-25T17:47:47;35.47;;;10.57;;
21827;SDS011;11076;47.942;11.804;2023-01-25T17:52:50;54.07;;;12.90;;
21827;SDS011;11076;47.942;11.804;2023-01-25T17:57:52;25.00;;;10.10;;
21827;SDS011;11076;47.942;11.804;2023-01-25T18:02:54;21.90;;;10.47;;
21827;SDS011;11076;47.942;11.804;2023-01-25T18:07:58;22.23;;;10.20;;
21827;SDS011;11076;47.942;11.804;2023-01-25T18:13:00;8.80;;;4.80;;
21827;SDS011;11076;47.942;11.804;2023-01-25T18:18:05;17.30;;;8.57;;
21827;SDS011;11076;47.942;11.804;2023-01-25T18:23:09;23.60;;;10.83;;
21827;SDS011;11076;47.942;11.804;2023-01-25T18:28:11;19.63;;;9.23;;
21827;SDS011;11076;47.942;11.804;2023-01-25T18:33:14;19.67;;;8.80;;
21827;SDS011;11076;47.942;11.804;2023-01-25T18:38:17;21.03;;;9.30;;
21827;SDS011;11076;47.942;11.804;2023-01-25T18:43:19;18.53;;;8.97;;
21827;SDS011;11076;47.942;11.804;2023-01-25T18:48:22;20.13;;;9.37;;
21827;SDS011;11076;47.942;11.804;2023-01-25T18:53:32;14.87;;;7.67;;
21827;SDS011;11076;47.942;11.804;2023-01-25T18:58:35;19.10;;;8.80;;
21827;SDS011;11076;47.942;11.804;2023-01-25T19:03:38;18.83;;;8.70;;
21827;SDS011;11076;47.942;11.804;2023-01-25T19:08:41;18.87;;;7.93;;
21827;SDS011;11076;47.942;11.804;2023-01-25T19:13:45;17.87;;;8.37;;
21827;SDS011;11076;47.942;11.804;2023-01-25T19:18:48;21.27;;;7.83;;
21827;SDS011;11076;47.942;11.804;2023-01-25T19:23:53;17.90;;;7.87;;
21827;SDS011;11076;47.942;11.804;2023-01-25T19:28:57;19.50;;;10.67;;
21827;SDS011;11076;47.942;11.804;2023-01-25T19:34:00;19.97;;;10.03;;
21827;SDS011;11076;47.942;11.804;2023-01-25T19:39:05;19.80;;;9.73;;
21827;SDS011;11076;47.942;11.804;2023-01-25T19:44:11;16.73;;;7.90;;
21827;SDS011;11076;47.942;11.804;2023-01-25T19:49:14;18.97;;;9.83;;
21827;SDS011;11076;47.942;11.804;2023-01-25T19:54:17;22.27;;;9.40;;
21827;SDS011;11076;47.942;11.804;2023-01-25T19:59:21;17.57;;;7.77;;
21827;SDS011;11076;47.942;11.804;2023-01-25T20:04:26;14.07;;;6.60;;
21827;SDS011;11076;47.942;11.804;2023-01-25T20:09:28;19.10;;;8.37;;
21827;SDS011;11076;47.942;11.804;2023-01-25T20:14:31;15.53;;;7.67;;
21827;SDS011;11076;47.942;11.804;2023-01-25T20:19:33;18.83;;;7.27;;
21827;SDS011;11076;47.942;11.804;2023-01-25T20:24:38;17.90;;;7.73;;
21827;SDS011;11076;47.942;11.804;2023-01-25T20:29:40;14.43;;;7.97;;
21827;SDS011;11076;47.942;11.804;2023-01-25T20:34:42;23.03;;;8.30;;
21827;SDS011;11076;47.942;11.804;2023-01-25T20:39:45;16.07;;;8.33;;
21827;SDS011;11076;47.942;11.804;2023-01-25T20:44:47;19.67;;;9.00;;
21827;SDS011;11076;47.942;11.804;2023-01-25T20:49:49;25.30;;;10.23;;
21827;SDS011;11076;47.942;11.804;2023-01-25T20:54:52;30.10;;;9.70;;
21827;SDS011;11076;47.942;11.804;2023-01-25T20:59:54;24.37;;;9.40;;
21827;SDS011;11076;47.942;11.804;2023-01-25T21:04:57;20.23;;;9.07;;
21827;SDS011;11076;47.942;11.804;2023-01-25T21:09:59;21.87;;;8.83;;
21827;SDS011;11076;47.942;11.804;2023-01-25T21:15:01;20.17;;;10.20;;
21827;SDS011;11076;47.942;11.804;2023-01-25T21:20:05;20.77;;;9.07;;
21827;SDS011;11076;47.942;11.804;2023-01-25T21:25:08;16.17;;;8.57;;
21827;SDS011;11076;47.942;11.804;2023-01-25T21:30:10;16.37;;;7.97;;
21827;SDS011;11076;47.942;11.804;2023-01-25T21:35:16;16.90;;;7.90;;
21827;SDS011;11076;47.942;11.804;2023-01-25T21:40:18;20.00;;;10.07;;
21827;SDS011;11076;47.942;11.804;2023-01-25T21:45:21;16.37;;;7.93;;
21827;SDS011;11076;47.942;11.804;2023-01-25T21:50:42;16.10;;;7.97;;
21827;SDS011;11076;47.942;11.804;2023-01-25T21:56:03;15.17;;;8.23;;
21827;SDS011;11076;47.942;11.804;2023-01-25T22:01:05;13.90;;;6.50;;
21827;SDS011;11076;47.942;11.804;2023-01-25T22:06:10;16.60;;;7.03;;
21827;SDS011;11076;47.942;11.804;2023-01-25T22:11:13;11.20;;;5.87;;
21827;SDS011;11076;47.942;11.804;2023-01-25T22:16:15;14.77;;;6.53;;
21827;SDS011;11076;47.942;11.804;2023-01-25T22:21:19;16.33;;;7.90;;
21827;SDS011;11076;47.942;11.804;2023-01-25T22:26:29;17.67;;;6.97;;
21827;SDS011;11076;47.942;11.804;2023-01-25T22:31:40;15.63;;;7.70;;
21827;SDS011;11076;47.942;11.804;2023-01-25T22:36:43;15.60;;;7.87;;
21827;SDS011;11076;47.942;11.804;2023-01-25T22:41:45;17.80;;;8.93;;
21827;SDS011;11076;47.942;11.804;2023-01-25T22:46:47;18.57;;;8.10;;
21827;SDS011;11076;47.942;11.804;2023-01-25T22:51:51;15.00;;;7.77;;
21827;SDS011;11076;47.942;11.804;2023-01-25T22:56:53;18.97;;;7.43;;
21827;SDS011;11076;47.942;11.804;2023-01-25T23:01:56;8.00;;;4.20;;
21827;SDS011;11076;47.942;11.804;2023-01-25T23:06:58;12.23;;;5.83;;
21827;SDS011;11076;47.942;11.804;2023-01-25T23:12:13;12.40;;;6.80;;
21827;SDS011;11076;47.942;11.804;2023-01-25T23:17:17;8.90;;;4.73;;
21827;SDS011;11076;47.942;11.804;2023-01-25T23:22:39;13.33;;;6.57;;
21827;SDS011;11076;47.942;11.804;2023-01-25T23:27:41;16.03;;;7.30;;
21827;SDS011;11076;47.942;11.804;2023-01-25T23:32:43;14.93;;;6.80;;
21827;SDS011;11076;47.942;11.804;2023-01-25T23:37:50;12.33;;;6.63;;
21827;SDS011;11076;47.942;11.804;2023-01-25T23:42:52;17.97;;;7.33;;
21827;SDS011;11076;47.942;11.804;2023-01-25T23:47:55;15.43;;;7.73;;
21827;SDS011;11076;47.942;11.804;2023-01-25T23:52:57;14.60;;;6.30;;
21827;SDS011;11076;47.942;11.804;2023-01-25T23:58:00;14.43;;;7.53;;
